Time;durP1;ratioP1;P1;durP2;ratioP2;P2;SDS_P1;SDS_P2;PMS_P1;PMS_P2;Temp;Humidity;BMP_temperature;BMP_pressure;BME280_temperature;BME280_humidity;BME280_pressure;Samples;Min_cycle;Max_cycle;Signal;HPM_P1;HPM_P2
2022/04/21 00:01:34;;;;;;;55.28;33.55;;;;;;;;;;10432837;28;20046;-69
2022/04/21 00:06:36;;;;;;;49.45;34.13;;;;;;;;;;10431904;28;20045;-69
2022/04/21 00:11:38;;;;;;;51.53;34.05;;;;;;;;;;10432590;28;20052;-69
2022/04/21 00:16:42;;;;;;;54.72;35.08;;;;;;;;;;10431598;28;20052;-70
2022/04/21 00:27:04;;;;;;;50.50;34.25;;;;;;;;;;10412598;28;20050;-70
2022/04/21 00:32:08;;;;;;;52.95;35.95;;;;;;;;;;10437252;28;20045;-70
2022/04/21 00:37:11;;;;;;;51.05;35.67;;;;;;;;;;10438677;28;20041;-70
2022/04/21 00:42:14;;;;;;;51.28;36.28;;;;;;;;;;10439025;28;20114;-70
2022/04/21 00:47:19;;;;;;;53.67;36.13;;;;;;;;;;10453138;28;20049;-70
2022/04/21 00:52:21;;;;;;;54.20;35.50;;;;;;;;;;10437515;28;20266;-70
2022/04/21 00:57:23;;;;;;;60.30;38.63;;;;;;;;;;10438782;28;20053;-70
2022/04/21 01:07:47;;;;;;;55.13;36.88;;;;;;;;;;10437574;28;20244;-70
2022/04/21 01:12:51;;;;;;;52.38;36.20;;;;;;;;;;10437064;28;20240;-69
2022/04/21 01:17:55;;;;;;;51.80;35.30;;;;;;;;;;10437478;28;20049;-69
2022/04/21 01:22:58;;;;;;;51.72;35.20;;;;;;;;;;10436741;28;20112;-69
2022/04/21 01:28:02;;;;;;;49.75;34.55;;;;;;;;;;10437626;28;20049;-70
2022/04/21 01:33:04;;;;;;;55.50;35.42;;;;;;;;;;10436995;28;20057;-69
2022/04/21 01:43:29;;;;;;;58.83;36.95;;;;;;;;;;10436150;28;20068;-69
2022/04/21 01:48:31;;;;;;;60.33;36.70;;;;;;;;;;10436742;28;20045;-69
2022/04/21 01:53:35;;;;;;;56.40;35.30;;;;;;;;;;10430717;28;20228;-69
2022/04/21 01:58:37;;;;;;;53.85;34.95;;;;;;;;;;10436266;28;20053;-68
2022/04/21 02:03:45;;;;;;;53.63;34.90;;;;;;;;;;10435604;28;20049;-69
2022/04/21 02:08:49;;;;;;;54.25;34.92;;;;;;;;;;10434496;28;20061;-70
2022/04/21 02:13:52;;;;;;;59.88;35.90;;;;;;;;;;10435500;28;20240;-69
2022/04/21 02:18:54;;;;;;;54.22;34.95;;;;;;;;;;10433940;28;20052;-69
2022/04/21 02:23:58;;;;;;;59.85;37.78;;;;;;;;;;10420319;28;20324;-69
2022/04/21 02:29:01;;;;;;;52.70;35.37;;;;;;;;;;10434682;28;20053;-69
2022/04/21 02:34:03;;;;;;;55.15;36.17;;;;;;;;;;10434777;28;20041;-69
2022/04/21 02:39:07;;;;;;;55.30;36.10;;;;;;;;;;10433495;28;20410;-69
2022/04/21 02:44:10;;;;;;;51.38;35.15;;;;;;;;;;10434382;28;20069;-69
2022/04/21 02:49:13;;;;;;;61.72;37.95;;;;;;;;;;10434354;28;20041;-69
2022/04/21 02:59:51;;;;;;;;;;;;;;;;;;10348030;28;20272;-68
2022/04/21 03:04:54;;;;;;;55.97;36.42;;;;;;;;;;10346909;28;20332;-69
2022/04/21 03:09:57;;;;;;;59.75;37.05;;;;;;;;;;10346636;28;20066;-69
2022/04/21 03:15:00;;;;;;;53.90;35.55;;;;;;;;;;10346562;28;20058;-70
2022/04/21 03:24:18;;;;;;;57.25;37.67;;;;;;;;;;10344952;28;20057;-70
2022/04/21 03:25:38;;;;;;;61.00;36.95;;;;;;;;;;10348040;28;20108;-70
2022/04/21 03:30:41;;;;;;;64.37;41.97;;;;;;;;;;10410970;28;20260;-69
2022/04/21 03:35:43;;;;;;;57.25;37.30;;;;;;;;;;10431655;28;20064;-69
2022/04/21 03:40:47;;;;;;;54.92;36.33;;;;;;;;;;10432461;28;20237;-69
2022/04/21 03:45:49;;;;;;;56.25;36.60;;;;;;;;;;10431508;28;20061;-68
2022/04/21 03:50:52;;;;;;;66.15;40.53;;;;;;;;;;10429476;28;20048;-69
2022/04/21 03:55:56;;;;;;;56.08;38.97;;;;;;;;;;10429955;28;20045;-68
2022/04/21 04:00:58;;;;;;;67.22;40.78;;;;;;;;;;10436927;28;20048;-70
2022/04/21 04:06:01;;;;;;;70.82;42.45;;;;;;;;;;10439690;28;20056;-69
2022/04/21 04:11:04;;;;;;;64.28;41.40;;;;;;;;;;10440426;28;20240;-69
2022/04/21 04:16:07;;;;;;;64.13;40.35;;;;;;;;;;10438829;28;20041;-69
2022/04/21 04:21:12;;;;;;;67.55;41.40;;;;;;;;;;10439072;28;20060;-70
2022/04/21 04:26:15;;;;;;;70.93;42.13;;;;;;;;;;10439100;28;20105;-69
2022/04/21 04:31:18;;;;;;;73.72;43.80;;;;;;;;;;10437975;28;20272;-69
2022/04/21 04:36:22;;;;;;;64.05;39.50;;;;;;;;;;10439223;28;20080;-69
2022/04/21 04:46:46;;;;;;;66.00;43.42;;;;;;;;;;10438545;28;20410;-69
2022/04/21 04:51:48;;;;;;;63.55;38.92;;;;;;;;;;10438707;28;20228;-69
2022/04/21 04:56:52;;;;;;;62.63;39.55;;;;;;;;;;10438333;28;20041;-69
2022/04/21 05:01:54;;;;;;;62.33;37.88;;;;;;;;;;10438088;28;20092;-69
2022/04/21 05:06:57;;;;;;;58.85;37.40;;;;;;;;;;10438704;28;20049;-69
2022/04/21 05:12:02;;;;;;;62.13;38.45;;;;;;;;;;10435588;28;20049;-69
2022/04/21 05:17:04;;;;;;;69.03;40.22;;;;;;;;;;10436848;28;20049;-69
2022/04/21 05:22:09;;;;;;;78.07;43.42;;;;;;;;;;10437733;28;20053;-70
2022/04/21 05:27:14;;;;;;;78.22;42.10;;;;;;;;;;10434836;28;20044;-69
2022/04/21 05:32:18;;;;;;;;;;;;;;;;;;10438206;28;20064;-68
2022/04/21 05:37:22;;;;;;;76.25;42.67;;;;;;;;;;10437070;28;19970;-68
2022/04/21 05:42:28;;;;;;;72.15;41.08;;;;;;;;;;10434580;28;20057;-68
2022/04/21 05:47:33;;;;;;;69.20;40.80;;;;;;;;;;10446876;28;20041;-68
2022/04/21 05:52:40;;;;;;;82.38;46.38;;;;;;;;;;10395533;28;20050;-69
2022/04/21 05:57:45;;;;;;;55.25;33.20;;;;;;;;;;10436703;28;20337;-70
2022/04/21 06:02:47;;;;;;;50.67;31.35;;;;;;;;;;10434644;28;20382;-69
2022/04/21 06:07:49;;;;;;;52.05;30.85;;;;;;;;;;10433484;28;20345;-71
2022/04/21 06:12:53;;;;;;;42.92;26.02;;;;;;;;;;10435913;28;20049;-71
2022/04/21 06:17:55;;;;;;;38.63;24.52;;;;;;;;;;10433368;28;20041;-70
2022/04/21 06:22:58;;;;;;;29.00;19.25;;;;;;;;;;10433138;28;20353;-68
2022/04/21 06:28:04;;;;;;;27.77;18.63;;;;;;;;;;10433629;28;20049;-71
2022/04/21 06:33:09;;;;;;;24.42;16.92;;;;;;;;;;10433281;28;20041;-71
2022/04/21 06:38:11;;;;;;;22.00;15.52;;;;;;;;;;10434914;28;20053;-68
2022/04/21 06:48:38;;;;;;;11.80;10.27;;;;;;;;;;10434237;28;20323;-69
2022/04/21 06:53:42;;;;;;;13.48;11.35;;;;;;;;;;10432677;28;20049;-69
2022/04/21 06:58:46;;;;;;;10.70;9.60;;;;;;;;;;10434332;28;20073;-70
2022/04/21 07:03:48;;;;;;;10.10;8.80;;;;;;;;;;10431611;28;20053;-70
2022/04/21 07:08:50;;;;;;;11.23;9.85;;;;;;;;;;10434030;28;20049;-71
2022/04/21 07:13:55;;;;;;;10.23;9.00;;;;;;;;;;10432236;28;20045;-68
2022/04/21 07:18:57;;;;;;;10.40;9.30;;;;;;;;;;10430980;28;20061;-68
2022/04/21 07:24:00;;;;;;;10.75;9.27;;;;;;;;;;10418461;28;20210;-71
2022/04/21 07:29:04;;;;;;;11.48;9.85;;;;;;;;;;10405637;28;20096;-69
2022/04/21 07:34:06;;;;;;;10.83;9.73;;;;;;;;;;10430416;28;20104;-69
2022/04/21 07:39:09;;;;;;;10.35;9.23;;;;;;;;;;10431950;28;20085;-71
2022/04/21 07:44:13;;;;;;;24.95;18.45;;;;;;;;;;10431285;28;20304;-70
2022/04/21 07:54:35;;;;;;;10.52;8.98;;;;;;;;;;10432185;28;20049;-69
2022/04/21 07:59:39;;;;;;;9.65;8.70;;;;;;;;;;10432286;28;20098;-68
2022/04/21 08:04:43;;;;;;;8.32;7.53;;;;;;;;;;10431378;28;20049;-68
2022/04/21 08:09:45;;;;;;;7.38;6.60;;;;;;;;;;10431709;28;20061;-69
2022/04/21 08:14:49;;;;;;;6.10;5.50;;;;;;;;;;10431382;28;20359;-68
2022/04/21 08:19:51;;;;;;;6.00;5.40;;;;;;;;;;10431874;28;20452;-70
2022/04/21 08:35:34;;;;;;;10.55;8.07;;;;;;;;;;10431201;28;20072;-69
2022/04/21 08:40:38;;;;;;;3.55;3.25;;;;;;;;;;10431942;28;20118;-69
2022/04/21 08:45:44;;;;;;;4.90;4.40;;;;;;;;;;10400611;28;20050;-70
2022/04/21 08:50:47;;;;;;;3.58;3.28;;;;;;;;;;10449929;28;20052;-71
2022/04/21 08:55:49;;;;;;;2.90;2.70;;;;;;;;;;10437901;28;20057;-70
2022/04/21 09:00:56;;;;;;;4.05;3.00;;;;;;;;;;10438187;28;20061;-70
2022/04/21 09:05:58;;;;;;;2.65;2.47;;;;;;;;;;10410951;28;20125;-69
2022/04/21 09:11:05;;;;;;;2.85;2.65;;;;;;;;;;10426030;28;20061;-71
2022/04/21 09:16:10;;;;;;;3.50;2.95;;;;;;;;;;10437115;28;20065;-70
2022/04/21 09:21:17;;;;;;;3.95;3.40;;;;;;;;;;10451834;28;20041;-69
2022/04/21 09:26:21;;;;;;;3.60;3.30;;;;;;;;;;10436106;28;20269;-69
2022/04/21 09:31:27;;;;;;;4.10;3.58;;;;;;;;;;10436378;28;20228;-71
2022/04/21 09:36:30;;;;;;;4.22;3.75;;;;;;;;;;10451562;28;20232;-72
2022/04/21 09:41:33;;;;;;;3.80;3.50;;;;;;;;;;10435960;28;20053;-70
2022/04/21 09:46:38;;;;;;;4.32;3.92;;;;;;;;;;10436471;28;20237;-72
2022/04/21 09:51:40;;;;;;;4.32;3.78;;;;;;;;;;10435851;28;20049;-70
2022/04/21 09:56:44;;;;;;;5.63;3.80;;;;;;;;;;10435617;28;20048;-69
2022/04/21 10:01:50;;;;;;;3.95;3.58;;;;;;;;;;10434508;28;20287;-69
2022/04/21 10:06:52;;;;;;;10.90;4.22;;;;;;;;;;10435084;28;20045;-69
2022/04/21 10:11:58;;;;;;;5.25;4.75;;;;;;;;;;10435768;28;20136;-69
2022/04/21 10:17:02;;;;;;;6.78;4.57;;;;;;;;;;10431973;28;20045;-70
2022/04/21 10:22:11;;;;;;;5.25;4.60;;;;;;;;;;10434392;28;20065;-71
2022/04/21 10:27:36;;;;;;;6.88;5.97;;;;;;;;;;10449758;28;20210;-71
2022/04/21 10:32:51;;;;;;;7.50;6.72;;;;;;;;;;10435329;28;20041;-68
2022/04/21 10:38:18;;;;;;;7.15;6.30;;;;;;;;;;10449207;28;20046;-68
2022/04/21 10:43:21;;;;;;;7.60;6.80;;;;;;;;;;10433838;28;20065;-69
2022/04/21 10:48:40;;;;;;;13.20;6.93;;;;;;;;;;10416727;28;20044;-69
2022/04/21 10:59:18;;;;;;;13.98;8.75;;;;;;;;;;10434344;28;20121;-69
2022/04/21 11:04:25;;;;;;;12.52;7.07;;;;;;;;;;10427458;28;20334;-70
2022/04/21 11:09:35;;;;;;;9.52;7.65;;;;;;;;;;10445719;28;20099;-69
2022/04/21 11:14:39;;;;;;;8.25;7.45;;;;;;;;;;10435066;28;20083;-72
2022/04/21 11:19:53;;;;;;;7.82;7.03;;;;;;;;;;10432134;28;20049;-70
2022/04/21 11:25:04;;;;;;;14.70;7.28;;;;;;;;;;10414995;28;20272;-69
2022/04/21 11:30:11;;;;;;;12.00;6.53;;;;;;;;;;10431482;28;20356;-71
2022/04/21 11:35:16;;;;;;;7.82;6.10;;;;;;;;;;10431250;28;20045;-69
2022/04/21 11:40:35;;;;;;;6.45;5.85;;;;;;;;;;10400569;28;20344;-69
2022/04/21 11:45:40;;;;;;;11.80;7.10;;;;;;;;;;10418989;28;20065;-70
2022/04/21 11:50:46;;;;;;;9.15;8.25;;;;;;;;;;10418527;28;20061;-68
2022/04/21 11:55:50;;;;;;;13.40;9.35;;;;;;;;;;10432522;28;20056;-68
2022/04/21 12:06:32;;;;;;;7.88;7.10;;;;;;;;;;10444241;28;20041;-69
2022/04/21 12:11:35;;;;;;;10.00;7.35;;;;;;;;;;10432797;28;20229;-68
2022/04/21 12:16:40;;;;;;;16.65;7.85;;;;;;;;;;10430716;28;20163;-69
2022/04/21 12:21:45;;;;;;;11.70;8.80;;;;;;;;;;10437771;28;20049;-69
2022/04/21 12:26:49;;;;;;;10.23;8.27;;;;;;;;;;10441425;28;20342;-70
2022/04/21 12:31:52;;;;;;;;;;;;;;;;;;10440423;28;20297;-69
2022/04/21 12:37:00;;;;;;;19.55;8.80;;;;;;;;;;10438935;28;19916;-70
2022/04/21 12:42:04;;;;;;;9.32;8.20;;;;;;;;;;10438980;28;20049;-68
2022/04/21 12:47:15;;;;;;;11.07;8.70;;;;;;;;;;10438372;28;20352;-70
2022/04/21 12:52:29;;;;;;;10.40;8.90;;;;;;;;;;10451571;28;20037;-69
2022/04/21 12:57:31;;;;;;;;;;;;;;;;;;10439770;28;20321;-70
2022/04/21 13:02:33;;;;;;;13.80;10.23;;;;;;;;;;10439439;28;20196;-70
2022/04/21 13:07:37;;;;;;;11.70;10.50;;;;;;;;;;10437416;28;20053;-69
2022/04/21 13:12:39;;;;;;;13.23;9.23;;;;;;;;;;10424695;28;20367;-71
2022/04/21 13:17:42;;;;;;;11.45;9.68;;;;;;;;;;10436369;28;20042;-70
2022/04/21 13:22:46;;;;;;;12.95;10.32;;;;;;;;;;10412137;28;20229;-71
2022/04/21 13:27:48;;;;;;;16.38;12.15;;;;;;;;;;10426933;28;20268;-72
2022/04/21 13:38:12;;;;;;;17.27;11.98;;;;;;;;;;10467254;28;20044;-69
2022/04/21 13:43:14;;;;;;;16.75;12.75;;;;;;;;;;10446045;28;20061;-68
2022/04/21 13:48:17;;;;;;;12.68;10.80;;;;;;;;;;10437876;28;20104;-68
2022/04/21 13:53:21;;;;;;;15.73;10.75;;;;;;;;;;10435364;28;20060;-70
2022/04/21 13:58:23;;;;;;;12.27;10.63;;;;;;;;;;10435011;28;20356;-70
2022/04/21 14:03:25;;;;;;;12.57;10.20;;;;;;;;;;10436821;28;20236;-69
2022/04/21 14:08:29;;;;;;;12.02;9.45;;;;;;;;;;10437577;28;20053;-70
2022/04/21 14:13:32;;;;;;;15.32;9.95;;;;;;;;;;10435932;28;20061;-70
2022/04/21 14:18:34;;;;;;;12.43;10.13;;;;;;;;;;10436976;28;20327;-69
2022/04/21 14:23:38;;;;;;;11.98;8.80;;;;;;;;;;10437141;28;20225;-69
2022/04/21 14:28:41;;;;;;;17.00;9.30;;;;;;;;;;10432981;28;20044;-71
2022/04/21 14:33:44;;;;;;;13.32;9.30;;;;;;;;;;10436285;28;20045;-70
2022/04/21 14:44:16;;;;;;;11.05;9.07;;;;;;;;;;10333102;28;20351;-70
2022/04/21 14:49:19;;;;;;;13.98;9.10;;;;;;;;;;10308446;28;20058;-70
2022/04/21 14:54:23;;;;;;;17.83;13.63;;;;;;;;;;10308951;28;20308;-70
2022/04/21 14:59:25;;;;;;;12.20;10.15;;;;;;;;;;10305747;28;20051;-71
2022/04/21 15:04:30;;;;;;;15.40;9.95;;;;;;;;;;10302761;28;20110;-71
2022/04/21 15:09:34;;;;;;;14.43;11.10;;;;;;;;;;10321122;28;20042;-68
2022/04/21 15:14:36;;;;;;;18.02;11.38;;;;;;;;;;10332596;28;20342;-70
2022/04/21 15:19:41;;;;;;;20.08;12.20;;;;;;;;;;10398151;28;20054;-72
2022/04/21 15:24:48;;;;;;;15.25;13.70;;;;;;;;;;10419326;28;20052;-71
2022/04/21 15:29:51;;;;;;;13.63;11.10;;;;;;;;;;10406432;28;20069;-71
2022/04/21 15:34:53;;;;;;;14.70;10.75;;;;;;;;;;10393184;28;20046;-71
2022/04/21 15:39:57;;;;;;;11.50;9.60;;;;;;;;;;10394804;28;20049;-70
2022/04/21 15:44:59;;;;;;;20.57;13.03;;;;;;;;;;10433730;28;20394;-69
2022/04/21 15:50:02;;;;;;;17.00;11.88;;;;;;;;;;10432123;28;20048;-70
2022/04/21 16:00:27;;;;;;;24.67;14.32;;;;;;;;;;10442307;28;20054;-71
2022/04/21 16:05:30;;;;;;;24.30;16.23;;;;;;;;;;10442051;28;20348;-71
2022/04/21 16:10:34;;;;;;;19.83;15.70;;;;;;;;;;10441490;28;20352;-70
2022/04/21 16:15:36;;;;;;;19.57;15.77;;;;;;;;;;10442134;28;20049;-71
2022/04/21 16:20:38;;;;;;;22.98;16.05;;;;;;;;;;10439667;28;20060;-70
2022/04/21 16:25:43;;;;;;;25.33;17.42;;;;;;;;;;10441582;28;20068;-70
2022/04/21 16:30:45;;;;;;;26.13;15.75;;;;;;;;;;10440193;28;20045;-70
2022/04/21 16:35:47;;;;;;;28.10;18.65;;;;;;;;;;10439632;28;20205;-70
2022/04/21 16:40:51;;;;;;;24.27;17.85;;;;;;;;;;10440613;28;20049;-70
2022/04/21 16:45:54;;;;;;;25.15;18.65;;;;;;;;;;10439620;28;20240;-69
2022/04/21 16:50:57;;;;;;;29.83;22.52;;;;;;;;;;10439469;28;20351;-71
2022/04/21 16:56:00;;;;;;;32.65;20.95;;;;;;;;;;10439012;28;20049;-68
2022/04/21 17:06:28;;;;;;;26.73;19.13;;;;;;;;;;10451698;28;20037;-69
2022/04/21 17:11:31;;;;;;;27.23;19.40;;;;;;;;;;10415667;28;20337;-68
2022/04/21 17:16:34;;;;;;;31.98;21.02;;;;;;;;;;10403360;28;20037;-69
2022/04/21 17:21:36;;;;;;;28.35;19.98;;;;;;;;;;10440712;28;20056;-69
2022/04/21 17:26:40;;;;;;;30.02;24.05;;;;;;;;;;10437270;28;20041;-71
2022/04/21 17:31:43;;;;;;;40.47;28.87;;;;;;;;;;10438560;28;20052;-70
2022/04/21 17:36:45;;;;;;;39.97;25.00;;;;;;;;;;10438856;28;20041;-67
2022/04/21 17:41:49;;;;;;;42.38;28.08;;;;;;;;;;10438000;28;20064;-69
2022/04/21 17:46:51;;;;;;;34.70;27.17;;;;;;;;;;10437927;28;20057;-69
2022/04/21 17:51:54;;;;;;;40.22;28.17;;;;;;;;;;10438743;28;20132;-69
2022/04/21 17:56:58;;;;;;;50.30;31.55;;;;;;;;;;10439007;28;20049;-70
2022/04/21 18:02:02;;;;;;;55.58;31.05;;;;;;;;;;10436957;28;20045;-70
2022/04/21 18:07:05;;;;;;;50.42;31.15;;;;;;;;;;10437884;28;20045;-71
2022/04/21 18:12:10;;;;;;;42.20;28.65;;;;;;;;;;10435758;28;20050;-70
2022/04/21 18:17:13;;;;;;;42.47;29.48;;;;;;;;;;10449757;28;20321;-69
2022/04/21 18:22:16;;;;;;;60.72;36.38;;;;;;;;;;10438897;28;20240;-70
2022/04/21 18:27:19;;;;;;;74.35;43.13;;;;;;;;;;10420525;28;20041;-70
2022/04/21 18:32:22;;;;;;;59.17;34.63;;;;;;;;;;10396322;28;20149;-70
2022/04/21 18:37:24;;;;;;;47.10;30.17;;;;;;;;;;10404799;28;20037;-70
2022/04/21 18:42:28;;;;;;;45.47;30.02;;;;;;;;;;10435348;28;20362;-68
2022/04/21 18:47:30;;;;;;;47.17;31.40;;;;;;;;;;10437365;28;20244;-69
2022/04/21 18:52:33;;;;;;;42.47;28.77;;;;;;;;;;10435087;28;20116;-69
2022/04/21 19:02:57;;;;;;;44.13;28.73;;;;;;;;;;10445988;28;20099;-71
2022/04/21 19:08:00;;;;;;;42.65;29.25;;;;;;;;;;10394922;28;20038;-69
2022/04/21 19:13:04;;;;;;;44.70;28.75;;;;;;;;;;10409973;28;20045;-71
2022/04/21 19:18:06;;;;;;;62.05;40.72;;;;;;;;;;10434400;28;20053;-69
2022/04/21 19:23:09;;;;;;;31.02;21.88;;;;;;;;;;10435070;28;20045;-71
2022/04/21 19:28:18;;;;;;;30.70;20.23;;;;;;;;;;10433844;28;20057;-71
2022/04/21 19:33:22;;;;;;;39.10;25.92;;;;;;;;;;10432991;28;20049;-71
2022/04/21 19:38:24;;;;;;;67.47;44.47;;;;;;;;;;10433789;28;20091;-69
2022/04/21 19:43:29;;;;;;;74.40;51.75;;;;;;;;;;10433201;28;20099;-69
2022/04/21 19:48:31;;;;;;;46.40;30.00;;;;;;;;;;10432809;28;20060;-70
2022/04/21 19:53:33;;;;;;;49.58;30.02;;;;;;;;;;10434284;28;20347;-69
2022/04/21 19:58:37;;;;;;;34.22;24.10;;;;;;;;;;10434159;28;20037;-68
2022/04/21 20:03:41;;;;;;;43.03;25.92;;;;;;;;;;10433169;28;20140;-68
2022/04/21 20:08:57;;;;;;;36.47;24.02;;;;;;;;;;10431097;28;20069;-71
2022/04/21 20:14:02;;;;;;;38.47;23.90;;;;;;;;;;10429712;28;20084;-68
2022/04/21 20:29:46;;;;;;;21.90;14.05;;;;;;;;;;10445657;28;20047;-69
2022/04/21 20:34:49;;;;;;;16.95;11.07;;;;;;;;;;10434169;28;20046;-69
2022/04/21 20:39:52;;;;;;;20.15;11.88;;;;;;;;;;10432098;28;20049;-71
2022/04/21 20:44:56;;;;;;;18.45;10.13;;;;;;;;;;10440830;28;20065;-69
2022/04/21 20:49:59;;;;;;;17.00;9.97;;;;;;;;;;10440772;28;20044;-69
2022/04/21 20:55:01;;;;;;;14.02;10.00;;;;;;;;;;10439666;28;20049;-70
2022/04/21 21:00:07;;;;;;;20.63;10.35;;;;;;;;;;10439104;28;20042;-69
2022/04/21 21:05:09;;;;;;;13.52;10.18;;;;;;;;;;10453241;28;20041;-71
2022/04/21 21:10:12;;;;;;;23.08;15.32;;;;;;;;;;10439755;28;20226;-70
2022/04/21 21:15:15;;;;;;;25.42;18.90;;;;;;;;;;10439181;28;20099;-70
2022/04/21 21:20:19;;;;;;;35.58;26.08;;;;;;;;;;10439706;28;20329;-69
2022/04/21 21:25:22;;;;;;;39.90;29.85;;;;;;;;;;10437039;28;20337;-70
2022/04/21 21:30:26;;;;;;;47.28;32.03;;;;;;;;;;10422750;28;20052;-71
2022/04/21 21:35:28;;;;;;;48.80;34.67;;;;;;;;;;10434913;28;20057;-71
2022/04/21 21:40:30;;;;;;;59.33;37.95;;;;;;;;;;10439025;28;20084;-69
2022/04/21 21:45:34;;;;;;;56.63;37.45;;;;;;;;;;10437918;28;20352;-70
2022/04/21 21:55:57;;;;;;;57.00;40.13;;;;;;;;;;10450444;28;20275;-71
2022/04/21 22:01:00;;;;;;;56.03;39.15;;;;;;;;;;10412252;28;20045;-70
2022/04/21 22:06:03;;;;;;;58.45;41.55;;;;;;;;;;10436995;28;20056;-71
2022/04/21 22:11:05;;;;;;;61.28;40.85;;;;;;;;;;10437210;28;20045;-69
2022/04/21 22:16:09;;;;;;;63.83;42.10;;;;;;;;;;10436479;28;20233;-69
2022/04/21 22:21:11;;;;;;;59.92;42.72;;;;;;;;;;10436051;28;20045;-69
2022/04/21 22:26:14;;;;;;;61.50;42.60;;;;;;;;;;10436112;28;20045;-69
2022/04/21 22:31:18;;;;;;;60.70;41.35;;;;;;;;;;10435707;28;20084;-69
2022/04/21 22:36:20;;;;;;;63.10;41.97;;;;;;;;;;10435158;28;20048;-69
2022/04/21 22:41:23;;;;;;;60.97;43.28;;;;;;;;;;10434515;28;20053;-68
2022/04/21 22:46:27;;;;;;;66.95;43.97;;;;;;;;;;10436111;28;20276;-70
2022/04/21 22:51:30;;;;;;;66.97;44.10;;;;;;;;;;10434890;28;20045;-69
2022/04/21 22:56:32;;;;;;;65.50;44.83;;;;;;;;;;10434760;28;20358;-69
2022/04/21 23:01:36;;;;;;;69.13;45.17;;;;;;;;;;10434911;28;20091;-69
2022/04/21 23:06:38;;;;;;;68.03;46.88;;;;;;;;;;10434169;28;20045;-69
2022/04/21 23:17:03;;;;;;;74.70;48.75;;;;;;;;;;10433731;28;20359;-69
2022/04/21 23:22:06;;;;;;;69.50;49.00;;;;;;;;;;10435251;28;20065;-69
2022/04/21 23:27:08;;;;;;;78.82;50.30;;;;;;;;;;10433780;28;20403;-69
2022/04/21 23:32:12;;;;;;;74.57;51.17;;;;;;;;;;10433348;28;20214;-69
2022/04/21 23:37:15;;;;;;;74.50;50.75;;;;;;;;;;10433860;28;20052;-69
2022/04/21 23:42:17;;;;;;;72.90;49.80;;;;;;;;;;10432430;28;20038;-69
2022/04/21 23:47:23;;;;;;;72.18;50.53;;;;;;;;;;10430306;28;20096;-69
2022/04/21 23:52:26;;;;;;;72.80;51.75;;;;;;;;;;10442880;28;20037;-69
2022/04/21 23:57:28;;;;;;;74.95;50.67;;;;;;;;;;10429885;28;20057;-68
